createdAt,value
2019-01-14T00:05:10.027Z,25.40
2019-01-14T00:20:43.371Z,21.43
2019-01-14T00:36:17.687Z,33.43
2019-01-14T00:51:51.445Z,17.30
2019-01-14T01:07:24.699Z,20.33
2019-01-14T01:22:57.917Z,37.40
2019-01-14T01:38:30.907Z,33.87
2019-01-14T01:54:04.064Z,24.87
2019-01-14T02:09:37.338Z,19.93
2019-01-14T02:25:10.198Z,32.00
2019-01-14T02:40:43.647Z,30.40
2019-01-14T02:56:16.601Z,13.70
2019-01-14T03:11:20.148Z,27.23
2019-01-14T03:26:33.284Z,24.87
2019-01-14T03:41:37.928Z,23.83
2019-01-14T03:56:41.699Z,28.37
2019-01-14T04:11:44.457Z,51.97
2019-01-14T04:26:47.134Z,18.60
2019-01-14T04:41:49.717Z,17.07
2019-01-14T04:56:52.594Z,20.00
2019-01-14T05:11:56.429Z,12.37
2019-01-14T05:27:05.434Z,29.37
2019-01-14T05:42:08.263Z,23.40
2019-01-14T05:57:10.907Z,77.03
2019-01-14T06:12:14.346Z,18.87
2019-01-14T06:27:16.936Z,10.63
2019-01-14T06:42:20.390Z,16.40
2019-01-14T06:57:23.006Z,60.00
2019-01-14T07:12:27.145Z,36.73
2019-01-14T07:27:29.833Z,39.00
2019-01-14T07:42:32.408Z,48.93
2019-01-14T07:57:35.023Z,25.67
2019-01-14T08:12:38.172Z,54.83
2019-01-14T08:27:40.851Z,32.73
2019-01-14T08:42:44.355Z,32.27
2019-01-14T08:57:54.421Z,29.73
2019-01-14T09:12:54.314Z,29.80
2019-01-14T09:27:56.998Z,34.80
2019-01-14T09:42:59.605Z,58.37
2019-01-14T09:58:02.846Z,47.90
2019-01-14T10:13:05.699Z,86.83
2019-01-14T10:28:08.526Z,42.97
2019-01-14T10:43:11.086Z,43.13
2019-01-14T10:58:13.717Z,55.57
2019-01-14T11:13:16.332Z,33.97
2019-01-14T11:28:19.393Z,48.07
2019-01-14T11:43:22.057Z,55.97
2019-01-14T11:58:24.623Z,38.07
2019-01-14T12:13:28.554Z,59.43
2019-01-14T12:28:32.782Z,66.97
2019-01-14T12:43:35.356Z,39.80
2019-01-14T12:58:38.029Z,51.17
2019-01-14T13:13:41.766Z,75.67
2019-01-14T13:28:44.917Z,45.23
2019-01-14T13:43:48.427Z,41.20
2019-01-14T13:58:51.701Z,47.10
2019-01-14T14:13:55.355Z,41.00
2019-01-14T14:28:58.316Z,36.43
2019-01-14T14:44:00.884Z,32.90
2019-01-14T14:59:04.810Z,46.13
2019-01-14T15:14:10.686Z,36.43
2019-01-14T15:29:14.291Z,53.27
2019-01-14T15:44:16.861Z,54.27
2019-01-14T15:59:19.450Z,47.43
2019-01-14T16:14:22.047Z,103.60
2019-01-14T16:29:24.613Z,56.17
2019-01-14T16:44:27.208Z,45.50
2019-01-14T16:59:30.654Z,47.00
2019-01-14T17:14:33.266Z,59.07
2019-01-14T17:29:35.888Z,52.83
2019-01-14T17:44:39.884Z,71.47
2019-01-14T17:59:42.682Z,64.97
2019-01-14T18:14:45.284Z,78.57
2019-01-14T18:29:48.180Z,69.23
2019-01-14T18:44:50.805Z,3.17
2019-01-14T18:59:53.388Z,5.30
2019-01-14T19:14:57.720Z,6.97
2019-01-14T19:30:01.581Z,11.03
2019-01-14T19:45:06.790Z,7.97
2019-01-14T20:00:15.924Z,4.53
2019-01-14T20:15:21.291Z,4.83
2019-01-14T20:30:24.997Z,5.30
2019-01-14T20:45:27.694Z,5.43
2019-01-14T21:00:30.262Z,4.73
2019-01-14T21:15:32.869Z,6.63
2019-01-14T21:30:36.952Z,3.20
2019-01-14T21:45:39.638Z,3.67
2019-01-14T22:00:43.006Z,3.27
2019-01-14T22:15:45.564Z,2.57
2019-01-14T22:30:49.317Z,2.10
2019-01-14T22:45:52.354Z,2.00
2019-01-14T23:01:01.968Z,2.33
2019-01-14T23:16:05.911Z,1.60
2019-01-14T23:31:08.540Z,3.37
2019-01-14T23:46:11.133Z,3.10
